Terminal Aerodrome Forecast
Issued by NWS Jacksonville, FL

Home | Current Version | Previous Version | Text Only | Print | Product List | Glossary On
Versions: 1 2 3 4 5 6 7 8 9 10 11 12 13 14 15 16 17 18 19 20
000
FTUS42 KJAX 070239 AAB
TAFSSI
TAF AMD
KSSI 070239Z 0703/0724 19006KT P6SM -SHRA OVC035
     FM070500 20004KT P6SM SCT150 SCT250
     FM071500 23005KT P6SM FEW035
     FM071800 15008KT P6SM SCT050=

USA.gov is the U.S. government's official web portal to all federal, state and local government web resources and services.